Dallas, Texas
Traffic Map
Current Weather Conditions
Dallas, Texas
Overcast Light Rain
Overcast
63°
Feels Like: 63°
Wind Chill: 63° Ceiling: 6000
Heat Index: 63° Visibility: 7mi
Dew Point: 61° Wind: 3mph
Humidity: 93% Direction: 60° (ENE)
Pressure: 30.07in Gusts: 0mph
Raw Report DataKDAL 210353Z 06003KT 7SM -RA FEW048 OVC060 17/16 A3007 RMK AO2 SLP178 P0002 T01720161
Traffic Incident Summary
Active as of:
Severity:
Category:
InformationThere was an issue retrieving the traffic information for this location. Please try a different location or try again shortly.
Advertisements
At Last! Intellicast now available for iPhone and Android